Time,TemperatureF,DewpointF,PressureIn,WindDirection,WindDirectionDegrees,WindSpeedMPH,WindSpeedGustMPH,Humidity,HourlyPrecipIn,Conditions,Clouds,dailyrainin,SoftwareType,DateUTC
2013-10-05 00:00:00,73.6,70.5,30.08,West,270,2.0,3.0,90,0.00,,,0.00,WUHU216DAVISVP2,2013-10-05 04:00:00,
2013-10-05 00:01:00,73.6,70.5,30.08,WNW,287,2.0,3.0,90,0.00,,,0.00,WUHU216DAVISVP2,2013-10-05 04:01:00,
2013-10-05 00:02:00,73.7,70.6,30.08,WNW,288,2.0,3.0,90,0.00,,,0.00,WUHU216DAVISVP2,2013-10-05 04:02:00,
2013-10-05 00:07:00,73.5,70.4,30.08,WNW,287,2.0,3.0,90,0.00,,,0.00,WUHU216DAVISVP2,2013-10-05 04:07:00,
2013-10-05 00:12:00,73.5,70.4,30.08,West,269,2.0,3.0,90,0.00,,,0.00,WUHU216DAVISVP2,2013-10-05 04:12:00,
2013-10-05 00:17:00,73.5,70.4,30.08,West,275,2.0,3.0,90,0.00,,,0.00,WUHU216DAVISVP2,2013-10-05 04:17:00,
2013-10-05 00:22:00,73.4,70.3,30.08,West,275,2.0,3.0,90,0.00,,,0.00,WUHU216DAVISVP2,2013-10-05 04:22:00,
2013-10-05 00:27:00,73.1,70.0,30.08,West,281,2.0,3.0,90,0.00,,,0.00,WUHU216DAVISVP2,2013-10-05 04:27:00,
2013-10-05 00:30:00,73.1,70.0,30.08,West,270,2.0,3.0,90,0.00,,,0.00,WUHU216DAVISVP2,2013-10-05 04:30:00,
2013-10-05 00:32:00,73.0,69.9,30.08,WNW,283,2.0,3.0,90,0.00,,,0.00,WUHU216DAVISVP2,2013-10-05 04:32:00,
2013-10-05 00:37:00,73.0,69.9,30.08,WNW,283,3.0,3.0,90,0.00,,,0.00,WUHU216DAVISVP2,2013-10-05 04:37:00,
2013-10-05 00:42:00,73.0,69.9,30.08,WNW,288,3.0,3.0,90,0.00,,,0.00,WUHU216DAVISVP2,2013-10-05 04:42:00,
2013-10-05 00:47:00,73.0,70.2,30.07,WNW,284,3.0,3.0,91,0.00,,,0.00,WUHU216DAVISVP2,2013-10-05 04:47:00,
2013-10-05 00:52:00,72.9,70.1,30.07,WNW,283,3.0,3.0,91,0.00,,,0.00,WUHU216DAVISVP2,2013-10-05 04:52:00,
2013-10-05 00:57:00,72.7,69.9,30.08,WNW,293,3.0,4.0,91,0.00,,,0.00,WUHU216DAVISVP2,2013-10-05 04:57:00,
2013-10-05 01:00:00,72.6,69.8,30.08,WNW,293,2.0,4.0,91,0.00,,,0.00,WUHU216DAVISVP2,2013-10-05 05:00:00,
2013-10-05 01:02:00,72.5,69.7,30.08,WNW,291,3.0,4.0,91,0.00,,,0.00,WUHU216DAVISVP2,2013-10-05 05:02:00,
2013-10-05 01:07:00,72.3,69.8,30.07,WNW,295,3.0,4.0,92,0.00,,,0.00,WUHU216DAVISVP2,2013-10-05 05:07:00,
2013-10-05 01:12:00,72.3,69.8,30.07,WNW,293,3.0,4.0,92,0.00,,,0.00,WUHU216DAVISVP2,2013-10-05 05:12:00,
2013-10-05 01:17:00,72.2,69.7,30.07,WNW,293,3.0,4.0,92,0.00,,,0.00,WUHU216DAVISVP2,2013-10-05 05:17:00,
2013-10-05 01:22:00,72.0,69.5,30.08,WNW,285,4.0,4.0,92,0.00,,,0.00,WUHU216DAVISVP2,2013-10-05 05:22:00,
2013-10-05 01:27:00,71.8,69.3,30.07,WNW,294,2.0,4.0,92,0.00,,,0.00,WUHU216DAVISVP2,2013-10-05 05:27:00,
2013-10-05 01:30:00,71.7,69.3,30.07,WNW,293,3.0,4.0,92,0.00,,,0.00,WUHU216DAVISVP2,2013-10-05 05:30:00,
2013-10-05 01:32:00,71.6,69.1,30.07,WNW,301,3.0,4.0,92,0.00,,,0.00,WUHU216DAVISVP2,2013-10-05 05:32:00,
2013-10-05 01:37:00,71.3,68.9,30.07,WNW,299,3.0,4.0,92,0.00,,,0.00,WUHU216DAVISVP2,2013-10-05 05:37:00,
2013-10-05 01:42:00,71.2,68.8,30.07,WNW,290,3.0,4.0,92,0.00,,,0.00,WUHU216DAVISVP2,2013-10-05 05:42:00,
2013-10-05 01:47:00,71.1,68.6,30.07,WNW,300,3.0,5.0,92,0.00,,,0.00,WUHU216DAVISVP2,2013-10-05 05:47:00,
2013-10-05 01:52:00,71.0,68.5,30.07,WNW,287,2.0,5.0,92,0.00,,,0.00,WUHU216DAVISVP2,2013-10-05 05:52:00,
2013-10-05 01:57:00,71.0,68.5,30.07,WNW,296,3.0,5.0,92,0.00,,,0.00,WUHU216DAVISVP2,2013-10-05 05:57:00,
2013-10-05 02:00:00,71.1,68.7,30.07,WNW,293,3.0,5.0,92,0.00,,,0.00,WUHU216DAVISVP2,2013-10-05 06:00:00,
2013-10-05 02:02:00,71.1,68.6,30.07,WNW,291,3.0,4.0,92,0.00,,,0.00,WUHU216DAVISVP2,2013-10-05 06:02:00,
2013-10-05 02:07:00,71.1,68.6,30.07,WNW,286,3.0,4.0,92,0.00,,,0.00,WUHU216DAVISVP2,2013-10-05 06:07:00,
2013-10-05 02:12:00,71.1,68.3,30.07,WNW,293,3.0,4.0,91,0.00,,,0.00,WUHU216DAVISVP2,2013-10-05 06:12:00,
2013-10-05 02:17:00,71.2,68.4,30.07,WNW,288,3.0,4.0,91,0.00,,,0.00,WUHU216DAVISVP2,2013-10-05 06:17:00,
2013-10-05 02:22:00,71.2,68.1,30.07,WNW,283,3.0,4.0,90,0.00,,,0.00,WUHU216DAVISVP2,2013-10-05 06:22:00,
2013-10-05 02:27:00,71.4,68.3,30.07,West,281,3.0,4.0,90,0.00,,,0.00,WUHU216DAVISVP2,2013-10-05 06:27:00,
2013-10-05 02:30:00,71.4,68.3,30.07,WNW,293,3.0,4.0,90,0.00,,,0.00,WUHU216DAVISVP2,2013-10-05 06:30:00,
2013-10-05 02:32:00,71.5,68.4,30.06,WNW,286,3.0,4.0,90,0.00,,,0.00,WUHU216DAVISVP2,2013-10-05 06:32:00,
2013-10-05 02:37:00,71.6,68.2,30.06,WNW,289,2.0,4.0,89,0.00,,,0.00,WUHU216DAVISVP2,2013-10-05 06:37:00,
2013-10-05 02:42:00,71.7,68.3,30.06,WNW,289,2.0,4.0,89,0.00,,,0.00,WUHU216DAVISVP2,2013-10-05 06:42:00,
2013-10-05 02:47:00,71.9,68.5,30.06,WNW,283,3.0,4.0,89,0.00,,,0.00,WUHU216DAVISVP2,2013-10-05 06:47:00,
2013-10-05 02:52:00,71.9,68.5,30.06,WNW,283,3.0,3.0,89,0.00,,,0.00,WUHU216DAVISVP2,2013-10-05 06:52:00,
2013-10-05 02:57:00,71.8,68.4,30.06,WNW,287,3.0,3.0,89,0.00,,,0.00,WUHU216DAVISVP2,2013-10-05 06:57:00,
2013-10-05 03:00:00,71.7,68.6,30.06,WNW,293,3.0,4.0,90,0.00,,,0.00,WUHU216DAVISVP2,2013-10-05 07:00:00,
2013-10-05 03:02:00,71.7,68.6,30.06,WNW,294,3.0,3.0,90,0.00,,,0.00,WUHU216DAVISVP2,2013-10-05 07:02:00,
2013-10-05 03:07:00,71.5,68.4,30.05,WNW,293,3.0,3.0,90,0.00,,,0.00,WUHU216DAVISVP2,2013-10-05 07:07:00,
2013-10-05 03:12:00,71.6,68.8,30.05,WNW,296,3.0,4.0,91,0.00,,,0.00,WUHU216DAVISVP2,2013-10-05 07:12:00,
2013-10-05 03:17:00,71.5,68.7,30.05,NW,304,1.0,4.0,91,0.00,,,0.00,WUHU216DAVISVP2,2013-10-05 07:17:00,
2013-10-05 03:22:00,71.3,68.5,30.05,NW,307,0.0,4.0,91,0.00,,,0.00,WUHU216DAVISVP2,2013-10-05 07:22:00,
2013-10-05 03:27:00,71.1,68.3,30.05,WNW,294,1.0,4.0,91,0.00,,,0.00,WUHU216DAVISVP2,2013-10-05 07:27:00,
2013-10-05 03:30:00,71.1,68.3,30.05,WNW,293,2.0,4.0,91,0.00,,,0.00,WUHU216DAVISVP2,2013-10-05 07:30:00,
2013-10-05 03:32:00,71.1,68.6,30.05,NW,307,1.0,3.0,92,0.00,,,0.00,WUHU216DAVISVP2,2013-10-05 07:32:00,
2013-10-05 03:37:00,71.2,68.7,30.05,NW,308,2.0,2.0,92,0.00,,,0.00,WUHU216DAVISVP2,2013-10-05 07:37:00,
2013-10-05 03:42:00,71.1,68.3,30.05,NW,304,2.0,2.0,91,0.00,,,0.00,WUHU216DAVISVP2,2013-10-05 07:42:00,
2013-10-05 03:47:00,71.0,68.5,30.05,WNW,302,2.0,2.0,92,0.00,,,0.00,WUHU216DAVISVP2,2013-10-05 07:47:00,
2013-10-05 03:52:00,70.9,68.4,30.05,WNW,295,2.0,3.0,92,0.00,,,0.00,WUHU216DAVISVP2,2013-10-05 07:52:00,
2013-10-05 03:57:00,70.8,68.3,30.04,WNW,293,3.0,4.0,92,0.00,,,0.00,WUHU216DAVISVP2,2013-10-05 07:57:00,
2013-10-05 04:00:00,70.7,68.3,30.05,NW,315,2.0,4.0,92,0.00,,,0.00,WUHU216DAVISVP2,2013-10-05 08:00:00,
2013-10-05 04:02:00,70.6,68.1,30.05,WNW,288,3.0,5.0,92,0.00,,,0.00,WUHU216DAVISVP2,2013-10-05 08:02:00,
2013-10-05 04:07:00,70.4,68.0,30.04,NW,311,4.0,5.0,92,0.00,,,0.00,WUHU216DAVISVP2,2013-10-05 08:07:00,
2013-10-05 04:12:00,70.3,68.1,30.04,WNW,301,3.0,5.0,93,0.00,,,0.00,WUHU216DAVISVP2,2013-10-05 08:12:00,
2013-10-05 04:17:00,70.2,68.1,30.05,NW,311,3.0,6.0,93,0.00,,,0.00,WUHU216DAVISVP2,2013-10-05 08:17:00,
2013-10-05 04:22:00,70.1,68.3,30.05,WNW,294,2.0,6.0,94,0.00,,,0.00,WUHU216DAVISVP2,2013-10-05 08:22:00,
2013-10-05 04:27:00,70.0,68.2,30.05,WNW,292,4.0,6.0,94,0.00,,,0.00,WUHU216DAVISVP2,2013-10-05 08:27:00,
2013-10-05 04:30:00,70.0,68.2,30.05,WNW,293,4.0,6.0,94,0.00,,,0.00,WUHU216DAVISVP2,2013-10-05 08:30:00,
2013-10-05 04:32:00,70.0,68.2,30.05,WNW,288,3.0,6.0,94,0.00,,,0.00,WUHU216DAVISVP2,2013-10-05 08:32:00,
2013-10-05 04:37:00,69.9,68.1,30.05,WNW,294,4.0,5.0,94,0.00,,,0.00,WUHU216DAVISVP2,2013-10-05 08:37:00,
2013-10-05 04:42:00,69.9,68.4,30.05,WNW,299,4.0,5.0,95,0.00,,,0.00,WUHU216DAVISVP2,2013-10-05 08:42:00,
2013-10-05 04:47:00,69.9,68.4,30.05,WNW,289,4.0,5.0,95,0.00,,,0.00,WUHU216DAVISVP2,2013-10-05 08:47:00,
2013-10-05 04:52:00,69.9,68.4,30.05,WNW,296,5.0,5.0,95,0.00,,,0.00,WUHU216DAVISVP2,2013-10-05 08:52:00,
2013-10-05 04:57:00,69.8,68.3,30.05,NW,309,4.0,5.0,95,0.00,,,0.00,WUHU216DAVISVP2,2013-10-05 08:57:00,
2013-10-05 05:00:00,69.9,68.4,30.05,WNW,293,4.0,6.0,95,0.00,,,0.00,WUHU216DAVISVP2,2013-10-05 09:00:00,
2013-10-05 05:02:00,69.9,68.4,30.05,WNW,297,3.0,6.0,95,0.00,,,0.00,WUHU216DAVISVP2,2013-10-05 09:02:00,
2013-10-05 05:07:00,69.8,68.3,30.05,NW,314,4.0,6.0,95,0.00,,,0.00,WUHU216DAVISVP2,2013-10-05 09:07:00,
2013-10-05 05:12:00,69.6,68.1,30.05,NW,312,5.0,6.0,95,0.00,,,0.00,WUHU216DAVISVP2,2013-10-05 09:12:00,
2013-10-05 05:17:00,69.5,68.0,30.05,NW,310,4.0,6.0,95,0.00,,,0.00,WUHU216DAVISVP2,2013-10-05 09:17:00,
2013-10-05 05:22:00,69.4,67.9,30.06,WNW,300,3.0,6.0,95,0.00,,,0.00,WUHU216DAVISVP2,2013-10-05 09:22:00,
2013-10-05 05:27:00,69.4,67.9,30.05,NW,305,4.0,6.0,95,0.00,,,0.00,WUHU216DAVISVP2,2013-10-05 09:27:00,
2013-10-05 05:30:00,69.4,67.9,30.06,NW,315,4.0,6.0,95,0.00,,,0.00,WUHU216DAVISVP2,2013-10-05 09:30:00,
2013-10-05 05:32:00,69.4,67.9,30.06,NW,305,3.0,6.0,95,0.00,,,0.00,WUHU216DAVISVP2,2013-10-05 09:32:00,
2013-10-05 05:37:00,69.4,67.9,30.06,NW,310,5.0,6.0,95,0.00,,,0.00,WUHU216DAVISVP2,2013-10-05 09:37:00,
2013-10-05 05:42:00,69.5,68.3,30.06,WNW,300,5.0,7.0,96,0.00,,,0.00,WUHU216DAVISVP2,2013-10-05 09:42:00,
2013-10-05 05:47:00,69.4,68.2,30.06,WNW,303,5.0,7.0,96,0.00,,,0.00,WUHU216DAVISVP2,2013-10-05 09:47:00,
2013-10-05 05:52:00,69.5,68.3,30.06,WNW,301,4.0,7.0,96,0.00,,,0.00,WUHU216DAVISVP2,2013-10-05 09:52:00,
2013-10-05 05:57:00,69.5,68.3,30.06,NW,320,4.0,7.0,96,0.00,,,0.00,WUHU216DAVISVP2,2013-10-05 09:57:00,
2013-10-05 06:00:00,69.5,68.3,30.06,NW,315,4.0,7.0,96,0.00,,,0.00,WUHU216DAVISVP2,2013-10-05 10:00:00,
2013-10-05 06:02:00,69.5,68.3,30.06,NW,318,4.0,7.0,96,0.00,,,0.00,WUHU216DAVISVP2,2013-10-05 10:02:00,
2013-10-05 06:07:00,69.4,68.2,30.06,NW,304,3.0,7.0,96,0.00,,,0.00,WUHU216DAVISVP2,2013-10-05 10:07:00,
2013-10-05 06:12:00,69.4,68.2,30.07,NW,309,4.0,6.0,96,0.00,,,0.00,WUHU216DAVISVP2,2013-10-05 10:12:00,
2013-10-05 06:17:00,69.4,68.2,30.07,NW,311,4.0,5.0,96,0.00,,,0.00,WUHU216DAVISVP2,2013-10-05 10:17:00,
2013-10-05 06:22:00,69.4,68.2,30.06,NW,304,4.0,5.0,96,0.00,,,0.00,WUHU216DAVISVP2,2013-10-05 10:22:00,
2013-10-05 06:27:00,69.4,68.2,30.07,NW,308,4.0,6.0,96,0.00,,,0.00,WUHU216DAVISVP2,2013-10-05 10:27:00,
2013-10-05 06:30:00,69.4,68.2,30.07,NW,315,4.0,6.0,96,0.00,,,0.00,WUHU216DAVISVP2,2013-10-05 10:30:00,
2013-10-05 06:32:00,69.4,68.2,30.07,NW,323,3.0,6.0,96,0.00,,,0.00,WUHU216DAVISVP2,2013-10-05 10:32:00,
2013-10-05 06:37:00,69.4,68.2,30.07,NW,316,4.0,6.0,96,0.00,,,0.00,WUHU216DAVISVP2,2013-10-05 10:37:00,
2013-10-05 06:42:00,69.4,68.2,30.07,West,269,4.0,6.0,96,0.00,,,0.00,WUHU216DAVISVP2,2013-10-05 10:42:00,
2013-10-05 06:47:00,69.4,68.2,30.07,NW,311,5.0,6.0,96,0.00,,,0.00,WUHU216DAVISVP2,2013-10-05 10:47:00,
2013-10-05 06:52:00,69.4,68.2,30.07,NW,304,4.0,6.0,96,0.00,,,0.00,WUHU216DAVISVP2,2013-10-05 10:52:00,
2013-10-05 06:57:00,69.4,68.2,30.07,NW,318,5.0,6.0,96,0.00,,,0.00,WUHU216DAVISVP2,2013-10-05 10:57:00,
2013-10-05 07:00:00,69.4,68.2,30.07,NW,315,4.0,6.0,96,0.00,,,0.00,WUHU216DAVISVP2,2013-10-05 11:00:00,
2013-10-05 07:02:00,69.4,68.2,30.07,NW,312,5.0,6.0,96,0.00,,,0.00,WUHU216DAVISVP2,2013-10-05 11:02:00,
2013-10-05 07:07:00,69.3,68.1,30.07,NW,309,4.0,6.0,96,0.00,,,0.00,WUHU216DAVISVP2,2013-10-05 11:07:00,
2013-10-05 07:12:00,69.3,68.1,30.08,NW,316,5.0,6.0,96,0.00,,,0.00,WUHU216DAVISVP2,2013-10-05 11:12:00,
2013-10-05 07:17:00,69.3,68.1,30.07,WNW,302,3.0,6.0,96,0.00,,,0.00,WUHU216DAVISVP2,2013-10-05 11:17:00,
2013-10-05 07:22:00,69.3,68.1,30.08,NW,304,2.0,6.0,96,0.00,,,0.00,WUHU216DAVISVP2,2013-10-05 11:22:00,
2013-10-05 07:27:00,69.3,68.1,30.08,NW,304,3.0,6.0,96,0.00,,,0.00,WUHU216DAVISVP2,2013-10-05 11:27:00,
2013-10-05 07:30:00,69.3,68.1,30.08,NW,315,4.0,6.0,96,0.00,,,0.00,WUHU216DAVISVP2,2013-10-05 11:30:00,
2013-10-05 07:32:00,69.4,68.2,30.08,NW,322,3.0,5.0,96,0.00,,,0.00,WUHU216DAVISVP2,2013-10-05 11:32:00,
2013-10-05 07:37:00,69.4,68.2,30.08,WNW,293,2.0,5.0,96,0.00,,,0.00,WUHU216DAVISVP2,2013-10-05 11:37:00,
2013-10-05 07:42:00,69.5,68.3,30.08,NW,306,2.0,5.0,96,0.00,,,0.00,WUHU216DAVISVP2,2013-10-05 11:42:00,
2013-10-05 07:47:00,69.6,68.4,30.08,WNW,288,2.0,5.0,96,0.00,,,0.00,WUHU216DAVISVP2,2013-10-05 11:47:00,
2013-10-05 07:52:00,69.8,68.6,30.08,NW,314,3.0,5.0,96,0.00,,,0.00,WUHU216DAVISVP2,2013-10-05 11:52:00,
2013-10-05 07:57:00,70.0,68.8,30.08,NW,317,2.0,5.0,96,0.00,,,0.00,WUHU216DAVISVP2,2013-10-05 11:57:00,
2013-10-05 08:00:00,70.1,68.9,30.08,NW,315,3.0,5.0,96,0.00,,,0.00,WUHU216DAVISVP2,2013-10-05 12:00:00,
2013-10-05 08:02:00,70.2,69.0,30.08,WNW,302,1.0,4.0,96,0.00,,,0.00,WUHU216DAVISVP2,2013-10-05 12:02:00,
2013-10-05 08:07:00,70.4,69.2,30.09,NW,305,3.0,4.0,96,0.00,,,0.00,WUHU216DAVISVP2,2013-10-05 12:07:00,
2013-10-05 08:12:00,70.6,69.4,30.09,WNW,293,2.0,4.0,96,0.00,,,0.00,WUHU216DAVISVP2,2013-10-05 12:12:00,
2013-10-05 08:17:00,70.7,69.5,30.09,NNW,334,3.0,4.0,96,0.00,,,0.00,WUHU216DAVISVP2,2013-10-05 12:17:00,
2013-10-05 08:22:00,71.0,69.8,30.09,NW,314,1.0,4.0,96,0.00,,,0.00,WUHU216DAVISVP2,2013-10-05 12:22:00,
2013-10-05 08:27:00,71.1,69.9,30.09,NW,314,1.0,4.0,96,0.00,,,0.00,WUHU216DAVISVP2,2013-10-05 12:27:00,
2013-10-05 08:30:00,71.2,70.0,30.09,NW,315,2.0,5.0,96,0.00,,,0.00,WUHU216DAVISVP2,2013-10-05 12:30:00,
2013-10-05 08:32:00,71.3,70.1,30.09,NW,325,2.0,5.0,96,0.00,,,0.00,WUHU216DAVISVP2,2013-10-05 12:32:00,
2013-10-05 08:37:00,71.6,70.4,30.09,NW,323,4.0,6.0,96,0.00,,,0.00,WUHU216DAVISVP2,2013-10-05 12:37:00,
2013-10-05 08:42:00,71.8,70.6,30.09,NW,304,2.0,7.0,96,0.00,,,0.00,WUHU216DAVISVP2,2013-10-05 12:42:00,
2013-10-05 08:47:00,72.0,70.5,30.09,NW,315,3.0,7.0,95,0.00,,,0.00,WUHU216DAVISVP2,2013-10-05 12:47:00,
2013-10-05 08:52:00,72.0,70.5,30.09,NW,305,2.0,7.0,95,0.00,,,0.00,WUHU216DAVISVP2,2013-10-05 12:52:00,
2013-10-05 08:57:00,72.1,70.6,30.09,WNW,301,2.0,7.0,95,0.00,,,0.00,WUHU216DAVISVP2,2013-10-05 12:57:00,
2013-10-05 09:00:00,72.3,70.8,30.10,NW,315,3.0,7.0,95,0.00,,,0.00,WUHU216DAVISVP2,2013-10-05 13:00:00,
2013-10-05 09:02:00,72.4,70.9,30.10,NW,321,2.0,6.0,95,0.00,,,0.00,WUHU216DAVISVP2,2013-10-05 13:02:00,
2013-10-05 09:07:00,72.7,71.2,30.10,NW,309,1.0,6.0,95,0.00,,,0.00,WUHU216DAVISVP2,2013-10-05 13:07:00,
2013-10-05 09:12:00,72.9,71.1,30.10,NW,324,1.0,6.0,94,0.00,,,0.00,WUHU216DAVISVP2,2013-10-05 13:12:00,
2013-10-05 09:17:00,72.9,71.0,30.10,West,271,1.0,4.0,94,0.00,,,0.00,WUHU216DAVISVP2,2013-10-05 13:17:00,
2013-10-05 09:22:00,73.2,71.3,30.10,WNW,295,3.0,4.0,94,0.00,,,0.00,WUHU216DAVISVP2,2013-10-05 13:22:00,
2013-10-05 09:27:00,73.3,71.1,30.10,WNW,293,3.0,4.0,93,0.00,,,0.00,WUHU216DAVISVP2,2013-10-05 13:27:00,
2013-10-05 09:30:00,73.3,71.2,30.10,WNW,293,2.0,4.0,93,0.00,,,0.00,WUHU216DAVISVP2,2013-10-05 13:30:00,
2013-10-05 09:32:00,73.6,71.7,30.10,SSW,198,0.0,4.0,94,0.00,,,0.00,WUHU216DAVISVP2,2013-10-05 13:32:00,
2013-10-05 09:37:00,74.2,72.3,30.10,SSE,166,0.0,4.0,94,0.00,,,0.00,WUHU216DAVISVP2,2013-10-05 13:37:00,
2013-10-05 09:42:00,74.6,72.4,30.10,SE,136,2.0,4.0,93,0.00,,,0.00,WUHU216DAVISVP2,2013-10-05 13:42:00,
2013-10-05 09:47:00,74.7,72.2,30.10,East,96,0.0,3.0,92,0.00,,,0.00,WUHU216DAVISVP2,2013-10-05 13:47:00,
2013-10-05 09:52:00,74.9,72.1,30.10,ENE,60,2.0,3.0,91,0.00,,,0.00,WUHU216DAVISVP2,2013-10-05 13:52:00,
2013-10-05 09:57:00,74.7,71.6,30.10,ESE,102,3.0,6.0,90,0.00,,,0.00,WUHU216DAVISVP2,2013-10-05 13:57:00,
2013-10-05 10:00:00,74.8,72.0,30.10,NE,45,2.0,6.0,91,0.00,,,0.00,WUHU216DAVISVP2,2013-10-05 14:00:00,
2013-10-05 10:02:00,75.1,72.0,30.10,NE,51,3.0,6.0,90,0.00,,,0.00,WUHU216DAVISVP2,2013-10-05 14:02:00,
2013-10-05 10:07:00,75.3,71.8,30.11,WSW,258,3.0,6.0,89,0.00,,,0.00,WUHU216DAVISVP2,2013-10-05 14:07:00,
2013-10-05 10:12:00,75.7,72.2,30.10,NNW,347,0.0,6.0,89,0.00,,,0.00,WUHU216DAVISVP2,2013-10-05 14:12:00,
2013-10-05 10:17:00,75.4,71.3,30.10,NE,47,7.0,8.0,87,0.00,,,0.00,WUHU216DAVISVP2,2013-10-05 14:17:00,
2013-10-05 10:22:00,75.4,71.3,30.10,NE,42,7.0,9.0,87,0.00,,,0.00,WUHU216DAVISVP2,2013-10-05 14:22:00,
2013-10-05 10:27:00,75.5,70.7,30.10,NE,35,8.0,9.0,85,0.00,,,0.00,WUHU216DAVISVP2,2013-10-05 14:27:00,
2013-10-05 10:30:00,75.3,70.8,30.10,NE,45,5.0,9.0,86,0.00,,,0.00,WUHU216DAVISVP2,2013-10-05 14:30:00,
2013-10-05 10:32:00,75.6,71.5,30.10,ENE,65,6.0,9.0,87,0.00,,,0.00,WUHU216DAVISVP2,2013-10-05 14:32:00,
2013-10-05 10:37:00,75.6,70.5,30.09,NE,46,7.0,9.0,84,0.00,,,0.00,WUHU216DAVISVP2,2013-10-05 14:37:00,
2013-10-05 10:42:00,75.9,70.7,30.10,NE,53,8.0,9.0,84,0.00,,,0.00,WUHU216DAVISVP2,2013-10-05 14:42:00,
2013-10-05 10:47:00,76.0,71.2,30.10,NE,52,7.0,8.0,85,0.00,,,0.00,WUHU216DAVISVP2,2013-10-05 14:47:00,
2013-10-05 10:52:00,76.2,71.7,30.09,NE,48,6.0,8.0,86,0.00,,,0.00,WUHU216DAVISVP2,2013-10-05 14:52:00,
2013-10-05 10:57:00,76.1,71.6,30.10,NE,50,7.0,9.0,86,0.00,,,0.00,WUHU216DAVISVP2,2013-10-05 14:57:00,
2013-10-05 11:00:00,76.2,71.4,30.09,NE,45,6.0,9.0,85,0.00,,,0.00,WUHU216DAVISVP2,2013-10-05 15:00:00,
2013-10-05 11:02:00,76.2,71.7,30.09,ENE,72,6.0,9.0,86,0.00,,,0.00,WUHU216DAVISVP2,2013-10-05 15:02:00,
2013-10-05 11:07:00,76.5,71.7,30.09,NE,52,7.0,9.0,85,0.00,,,0.00,WUHU216DAVISVP2,2013-10-05 15:07:00,
2013-10-05 11:12:00,76.4,71.2,30.09,NE,44,6.0,9.0,84,0.00,,,0.00,WUHU216DAVISVP2,2013-10-05 15:12:00,
2013-10-05 11:17:00,76.3,71.2,30.09,ENE,60,5.0,8.0,84,0.00,,,0.00,WUHU216DAVISVP2,2013-10-05 15:17:00,
2013-10-05 11:22:00,76.7,71.6,30.09,NE,52,5.0,8.0,84,0.00,,,0.00,WUHU216DAVISVP2,2013-10-05 15:22:00,
2013-10-05 11:27:00,76.7,71.2,30.09,ENE,75,6.0,8.0,83,0.00,,,0.00,WUHU216DAVISVP2,2013-10-05 15:27:00,
2013-10-05 11:30:00,76.9,71.3,30.09,NE,45,6.0,8.0,83,0.00,,,0.00,WUHU216DAVISVP2,2013-10-05 15:30:00,
2013-10-05 11:32:00,77.2,71.7,30.09,ENE,60,5.0,7.0,83,0.00,,,0.00,WUHU216DAVISVP2,2013-10-05 15:32:00,
2013-10-05 11:37:00,77.4,71.5,30.09,NE,49,3.0,7.0,82,0.00,,,0.00,WUHU216DAVISVP2,2013-10-05 15:37:00,
2013-10-05 11:42:00,77.5,71.2,30.09,ENE,60,4.0,7.0,81,0.00,,,0.00,WUHU216DAVISVP2,2013-10-05 15:42:00,
2013-10-05 11:47:00,77.6,71.4,30.09,ENE,57,7.0,8.0,81,0.00,,,0.00,WUHU216DAVISVP2,2013-10-05 15:47:00,
2013-10-05 11:52:00,77.6,71.4,30.09,ENE,71,5.0,8.0,81,0.00,,,0.00,WUHU216DAVISVP2,2013-10-05 15:52:00,
2013-10-05 11:57:00,77.6,71.0,30.09,ESE,107,6.0,8.0,80,0.00,,,0.00,WUHU216DAVISVP2,2013-10-05 15:57:00,
2013-10-05 12:00:00,77.6,70.9,30.09,ENE,68,6.0,8.0,80,0.00,,,0.00,WUHU216DAVISVP2,2013-10-05 16:00:00,
2013-10-05 12:02:00,77.9,71.0,30.09,East,92,5.0,8.0,79,0.00,,,0.00,WUHU216DAVISVP2,2013-10-05 16:02:00,
2013-10-05 12:07:00,77.9,70.6,30.09,East,90,6.0,8.0,78,0.00,,,0.00,WUHU216DAVISVP2,2013-10-05 16:07:00,
2013-10-05 12:12:00,77.9,71.0,30.09,East,98,5.0,8.0,79,0.00,,,0.00,WUHU216DAVISVP2,2013-10-05 16:12:00,
2013-10-05 12:17:00,78.0,71.3,30.09,SE,128,2.0,8.0,80,0.00,,,0.00,WUHU216DAVISVP2,2013-10-05 16:17:00,
2013-10-05 12:22:00,78.3,72.0,30.09,ESE,123,6.0,8.0,81,0.00,,,0.00,WUHU216DAVISVP2,2013-10-05 16:22:00,
2013-10-05 12:27:00,78.2,71.6,30.09,ENE,75,7.0,8.0,80,0.00,,,0.00,WUHU216DAVISVP2,2013-10-05 16:27:00,
2013-10-05 12:30:00,78.0,71.3,30.09,East,90,6.0,8.0,80,0.00,,,0.00,WUHU216DAVISVP2,2013-10-05 16:30:00,
2013-10-05 12:32:00,77.8,71.2,30.09,ENE,58,5.0,8.0,80,0.00,,,0.00,WUHU216DAVISVP2,2013-10-05 16:32:00,
2013-10-05 12:37:00,78.0,71.4,30.09,ESE,109,4.0,9.0,80,0.00,,,0.00,WUHU216DAVISVP2,2013-10-05 16:37:00,
2013-10-05 12:42:00,78.1,71.2,30.09,East,82,5.0,9.0,79,0.00,,,0.00,WUHU216DAVISVP2,2013-10-05 16:42:00,
2013-10-05 12:47:00,78.3,71.7,30.08,ENE,76,4.0,9.0,80,0.00,,,0.00,WUHU216DAVISVP2,2013-10-05 16:47:00,
2013-10-05 12:52:00,78.3,70.9,30.08,ESE,117,4.0,7.0,78,0.00,,,0.00,WUHU216DAVISVP2,2013-10-05 16:52:00,
2013-10-05 12:57:00,78.1,69.9,30.08,NE,54,7.0,8.0,76,0.00,,,0.00,WUHU216DAVISVP2,2013-10-05 16:57:00,
2013-10-05 13:00:00,78.2,70.8,30.08,ENE,68,6.0,9.0,78,0.00,,,0.00,WUHU216DAVISVP2,2013-10-05 17:00:00,
2013-10-05 13:02:00,78.2,70.5,30.08,ENE,69,6.0,8.0,77,0.00,,,0.00,WUHU216DAVISVP2,2013-10-05 17:02:00,
2013-10-05 13:07:00,78.2,70.2,30.08,ENE,64,5.0,8.0,76,0.00,,,0.00,WUHU216DAVISVP2,2013-10-05 17:07:00,
2013-10-05 13:17:00,78.6,71.3,30.07,ENE,58,7.0,8.0,78,0.00,,,0.00,WUHU216DAVISVP2,2013-10-05 17:17:00,
2013-10-05 13:22:00,78.7,71.4,30.07,East,86,6.0,8.0,78,0.00,,,0.00,WUHU216DAVISVP2,2013-10-05 17:22:00,
2013-10-05 13:27:00,78.6,70.9,30.07,East,92,4.0,8.0,77,0.00,,,0.00,WUHU216DAVISVP2,2013-10-05 17:27:00,
2013-10-05 13:30:00,78.7,70.9,30.07,ENE,68,6.0,8.0,77,0.00,,,0.00,WUHU216DAVISVP2,2013-10-05 17:30:00,
2013-10-05 13:32:00,78.7,70.9,30.07,NE,52,7.0,8.0,77,0.00,,,0.00,WUHU216DAVISVP2,2013-10-05 17:32:00,
2013-10-05 13:37:00,78.7,71.4,30.07,East,79,6.0,8.0,78,0.00,,,0.00,WUHU216DAVISVP2,2013-10-05 17:37:00,
2013-10-05 13:42:00,78.5,70.5,30.07,ENE,58,6.0,8.0,76,0.00,,,0.00,WUHU216DAVISVP2,2013-10-05 17:42:00,
2013-10-05 13:47:00,78.6,71.3,30.06,ENE,77,7.0,8.0,78,0.00,,,0.00,WUHU216DAVISVP2,2013-10-05 17:47:00,
2013-10-05 13:52:00,78.6,70.6,30.06,ENE,59,6.0,8.0,76,0.00,,,0.00,WUHU216DAVISVP2,2013-10-05 17:52:00,
2013-10-05 14:00:00,78.4,70.4,30.06,ENE,63,6.0,8.0,76,0.00,,,0.00,WUHU216DAVISVP2,2013-10-05 18:00:00,
2013-10-05 14:05:00,78.8,70.6,30.06,NE,48,7.0,8.0,76,0.00,,,0.00,WUHU216DAVISVP2,2013-10-05 18:05:00,
2013-10-05 14:10:00,78.8,70.2,30.06,East,83,5.0,8.0,75,0.00,,,0.00,WUHU216DAVISVP2,2013-10-05 18:10:00,
2013-10-05 14:15:00,78.8,71.0,30.06,ESE,103,6.0,8.0,77,0.00,,,0.00,WUHU216DAVISVP2,2013-10-05 18:15:00,
2013-10-05 14:20:00,78.9,71.2,30.06,ENE,68,5.0,8.0,77,0.00,,,0.00,WUHU216DAVISVP2,2013-10-05 18:20:00,
2013-10-05 14:25:00,78.8,71.1,30.05,ENE,63,7.0,8.0,77,0.00,,,0.00,WUHU216DAVISVP2,2013-10-05 18:25:00,
2013-10-05 14:30:00,79.0,71.3,30.05,East,93,5.0,7.0,77,0.00,,,0.00,WUHU216DAVISVP2,2013-10-05 18:30:00,
2013-10-05 14:35:00,79.0,70.8,30.05,ENE,72,6.0,8.0,76,0.00,,,0.00,WUHU216DAVISVP2,2013-10-05 18:35:00,
2013-10-05 14:40:00,78.7,70.7,30.05,ESE,115,6.0,8.0,76,0.00,,,0.00,WUHU216DAVISVP2,2013-10-05 18:40:00,
2013-10-05 14:45:00,78.8,70.8,30.05,NE,51,5.0,8.0,76,0.00,,,0.00,WUHU216DAVISVP2,2013-10-05 18:45:00,
2013-10-05 14:50:00,78.8,70.4,30.05,NE,38,4.0,9.0,75,0.00,,,0.00,WUHU216DAVISVP2,2013-10-05 18:50:00,
2013-10-05 14:55:00,79.2,71.5,30.05,ENE,72,5.0,9.0,77,0.00,,,0.00,WUHU216DAVISVP2,2013-10-05 18:55:00,
2013-10-05 15:00:00,79.0,70.6,30.05,ENE,76,6.0,9.0,75,0.00,,,0.00,WUHU216DAVISVP2,2013-10-05 19:00:00,
2013-10-05 15:05:00,79.2,71.1,30.05,ENE,77,6.0,8.0,76,0.00,,,0.00,WUHU216DAVISVP2,2013-10-05 19:05:00,
2013-10-05 15:10:00,79.4,71.2,30.05,East,82,5.0,8.0,76,0.00,,,0.00,WUHU216DAVISVP2,2013-10-05 19:10:00,
2013-10-05 15:15:00,79.5,71.3,30.05,ESE,105,5.0,8.0,76,0.00,,,0.00,WUHU216DAVISVP2,2013-10-05 19:15:00,
2013-10-05 15:20:00,79.4,71.3,30.05,ENE,77,5.0,8.0,76,0.00,,,0.00,WUHU216DAVISVP2,2013-10-05 19:20:00,
2013-10-05 15:25:00,79.3,71.2,30.05,NE,36,6.0,7.0,76,0.00,,,0.00,WUHU216DAVISVP2,2013-10-05 19:25:00,
2013-10-05 15:30:00,79.4,71.7,30.05,NE,36,6.0,7.0,77,0.00,,,0.00,WUHU216DAVISVP2,2013-10-05 19:30:00,
2013-10-05 15:35:00,79.5,71.4,30.05,ENE,76,3.0,7.0,76,0.00,,,0.00,WUHU216DAVISVP2,2013-10-05 19:35:00,
2013-10-05 15:40:00,79.4,71.6,30.05,ESE,106,8.0,8.0,77,0.00,,,0.00,WUHU216DAVISVP2,2013-10-05 19:40:00,
2013-10-05 15:45:00,79.5,71.8,30.05,East,97,7.0,8.0,77,0.00,,,0.00,WUHU216DAVISVP2,2013-10-05 19:45:00,
2013-10-05 15:50:00,79.1,71.4,30.04,East,81,6.0,8.0,77,0.00,,,0.00,WUHU216DAVISVP2,2013-10-05 19:50:00,
2013-10-05 15:55:00,78.9,71.6,30.04,ESE,104,7.0,8.0,78,0.00,,,0.00,WUHU216DAVISVP2,2013-10-05 19:55:00,
2013-10-05 16:00:00,79.0,72.1,30.05,ENE,70,4.0,8.0,79,0.00,,,0.00,WUHU216DAVISVP2,2013-10-05 20:00:00,
2013-10-05 16:05:00,79.1,71.8,30.05,East,94,5.0,9.0,78,0.00,,,0.00,WUHU216DAVISVP2,2013-10-05 20:05:00,
2013-10-05 16:10:00,78.8,71.9,30.05,East,98,4.0,9.0,79,0.00,,,0.00,WUHU216DAVISVP2,2013-10-05 20:10:00,
2013-10-05 16:15:00,78.9,72.0,30.04,East,85,6.0,9.0,79,0.00,,,0.00,WUHU216DAVISVP2,2013-10-05 20:15:00,
2013-10-05 16:20:00,78.8,71.9,30.04,NE,55,5.0,9.0,79,0.00,,,0.00,WUHU216DAVISVP2,2013-10-05 20:20:00,
2013-10-05 16:25:00,78.8,71.9,30.04,ESE,113,6.0,8.0,79,0.00,,,0.00,WUHU216DAVISVP2,2013-10-05 20:25:00,
2013-10-05 16:30:00,78.8,72.2,30.04,East,90,4.0,7.0,80,0.00,,,0.00,WUHU216DAVISVP2,2013-10-05 20:30:00,
2013-10-05 16:35:00,78.7,72.1,30.04,ESE,117,7.0,8.0,80,0.00,,,0.00,WUHU216DAVISVP2,2013-10-05 20:35:00,
2013-10-05 16:40:00,78.5,71.9,30.04,East,90,6.0,8.0,80,0.00,,,0.00,WUHU216DAVISVP2,2013-10-05 20:40:00,
2013-10-05 16:45:00,78.5,71.9,30.04,East,96,3.0,8.0,80,0.00,,,0.00,WUHU216DAVISVP2,2013-10-05 20:45:00,
2013-10-05 16:50:00,78.5,72.3,30.04,East,94,3.0,8.0,81,0.00,,,0.00,WUHU216DAVISVP2,2013-10-05 20:50:00,
2013-10-05 16:55:00,78.5,72.3,30.04,East,91,5.0,8.0,81,0.00,,,0.00,WUHU216DAVISVP2,2013-10-05 20:55:00,
2013-10-05 17:00:00,78.7,72.5,30.04,East,92,4.0,7.0,81,0.00,,,0.00,WUHU216DAVISVP2,2013-10-05 21:00:00,
2013-10-05 17:05:00,78.6,72.0,30.04,ENE,65,7.0,7.0,80,0.00,,,0.00,WUHU216DAVISVP2,2013-10-05 21:05:00,
2013-10-05 17:10:00,78.5,71.9,30.04,ESE,107,5.0,7.0,80,0.00,,,0.00,WUHU216DAVISVP2,2013-10-05 21:10:00,
2013-10-05 17:15:00,78.6,72.0,30.03,ESE,110,3.0,7.0,80,0.00,,,0.00,WUHU216DAVISVP2,2013-10-05 21:15:00,
2013-10-05 17:20:00,78.6,72.0,30.03,East,87,7.0,7.0,80,0.00,,,0.00,WUHU216DAVISVP2,2013-10-05 21:20:00,
2013-10-05 17:25:00,78.5,72.3,30.03,NNE,29,5.0,7.0,81,0.00,,,0.00,WUHU216DAVISVP2,2013-10-05 21:25:00,
2013-10-05 17:30:00,78.5,72.6,30.03,East,89,6.0,7.0,82,0.00,,,0.00,WUHU216DAVISVP2,2013-10-05 21:30:00,
2013-10-05 17:35:00,78.4,72.2,30.03,East,84,5.0,7.0,81,0.00,,,0.00,WUHU216DAVISVP2,2013-10-05 21:35:00,
2013-10-05 17:40:00,78.3,72.1,30.03,East,98,4.0,7.0,81,0.00,,,0.00,WUHU216DAVISVP2,2013-10-05 21:40:00,
2013-10-05 17:45:00,78.3,72.4,30.03,East,82,5.0,7.0,82,0.00,,,0.00,WUHU216DAVISVP2,2013-10-05 21:45:00,
2013-10-05 17:50:00,78.2,72.3,30.04,East,101,5.0,7.0,82,0.00,,,0.00,WUHU216DAVISVP2,2013-10-05 21:50:00,
2013-10-05 17:55:00,78.1,72.2,30.04,ENE,71,4.0,7.0,82,0.00,,,0.00,WUHU216DAVISVP2,2013-10-05 21:55:00,
2013-10-05 18:00:00,78.0,72.4,30.04,ESE,102,4.0,7.0,83,0.00,,,0.00,WUHU216DAVISVP2,2013-10-05 22:00:00,
2013-10-05 18:05:00,77.9,72.3,30.04,ENE,57,5.0,7.0,83,0.00,,,0.00,WUHU216DAVISVP2,2013-10-05 22:05:00,
2013-10-05 18:10:00,77.8,72.6,30.04,SE,127,4.0,7.0,84,0.00,,,0.00,WUHU216DAVISVP2,2013-10-05 22:10:00,
2013-10-05 18:15:00,77.8,72.6,30.04,ENE,66,4.0,7.0,84,0.00,,,0.00,WUHU216DAVISVP2,2013-10-05 22:15:00,
2013-10-05 18:20:00,77.6,72.4,30.04,ENE,73,4.0,7.0,84,0.00,,,0.00,WUHU216DAVISVP2,2013-10-05 22:20:00,
2013-10-05 18:25:00,77.3,72.1,30.04,ENE,76,6.0,7.0,84,0.00,,,0.00,WUHU216DAVISVP2,2013-10-05 22:25:00,
2013-10-05 18:30:00,77.3,72.8,30.04,ENE,58,6.0,7.0,86,0.00,,,0.00,WUHU216DAVISVP2,2013-10-05 22:30:00,
2013-10-05 18:35:00,77.1,72.6,30.04,NNE,28,6.0,7.0,86,0.00,,,0.00,WUHU216DAVISVP2,2013-10-05 22:35:00,
2013-10-05 18:40:00,77.0,72.5,30.04,SSE,158,4.0,7.0,86,0.00,,,0.00,WUHU216DAVISVP2,2013-10-05 22:40:00,
2013-10-05 18:45:00,76.9,72.4,30.04,ENE,69,6.0,7.0,86,0.00,,,0.00,WUHU216DAVISVP2,2013-10-05 22:45:00,
2013-10-05 18:50:00,76.8,72.7,30.03,ESE,104,6.0,7.0,87,0.00,,,0.00,WUHU216DAVISVP2,2013-10-05 22:50:00,
2013-10-05 18:55:00,76.8,73.0,30.03,ESE,112,5.0,7.0,88,0.00,,,0.00,WUHU216DAVISVP2,2013-10-05 22:55:00,
2013-10-05 19:00:00,76.7,72.9,30.03,East,87,6.0,7.0,88,0.00,,,0.00,WUHU216DAVISVP2,2013-10-05 23:00:00,
2013-10-05 19:05:00,76.5,72.7,30.03,East,79,5.0,7.0,88,0.00,,,0.00,WUHU216DAVISVP2,2013-10-05 23:05:00,
2013-10-05 19:10:00,76.5,72.7,30.03,ENE,73,6.0,7.0,88,0.00,,,0.00,WUHU216DAVISVP2,2013-10-05 23:10:00,
2013-10-05 19:15:00,76.5,72.7,30.03,ENE,78,4.0,7.0,88,0.00,,,0.00,WUHU216DAVISVP2,2013-10-05 23:15:00,
2013-10-05 19:20:00,76.4,72.9,30.03,East,85,5.0,7.0,89,0.00,,,0.00,WUHU216DAVISVP2,2013-10-05 23:20:00,
2013-10-05 19:25:00,76.4,72.9,30.03,NE,41,5.0,7.0,89,0.00,,,0.00,WUHU216DAVISVP2,2013-10-05 23:25:00,
2013-10-05 19:30:00,76.4,72.9,30.03,East,86,5.0,6.0,89,0.00,,,0.00,WUHU216DAVISVP2,2013-10-05 23:30:00,
2013-10-05 19:35:00,76.4,72.9,30.03,East,101,5.0,6.0,89,0.00,,,0.00,WUHU216DAVISVP2,2013-10-05 23:35:00,
2013-10-05 19:40:00,76.4,72.9,30.03,ENE,75,6.0,6.0,89,0.00,,,0.00,WUHU216DAVISVP2,2013-10-05 23:40:00,
2013-10-05 19:45:00,76.4,73.2,30.03,East,94,6.0,7.0,90,0.00,,,0.00,WUHU216DAVISVP2,2013-10-05 23:45:00,
2013-10-05 19:50:00,76.3,73.1,30.03,ENE,70,5.0,8.0,90,0.00,,,0.00,WUHU216DAVISVP2,2013-10-05 23:50:00,
2013-10-05 19:55:00,76.3,73.1,30.04,ENE,68,7.0,8.0,90,0.00,,,0.00,WUHU216DAVISVP2,2013-10-05 23:55:00,
2013-10-05 20:00:00,76.3,73.1,30.04,ENE,78,6.0,8.0,90,0.00,,,0.00,WUHU216DAVISVP2,2013-10-06 00:00:00,
2013-10-05 20:05:00,76.3,73.1,30.04,ENE,74,5.0,8.0,90,0.00,,,0.00,WUHU216DAVISVP2,2013-10-06 00:05:00,
2013-10-05 20:10:00,76.3,73.1,30.04,East,88,7.0,8.0,90,0.00,,,0.00,WUHU216DAVISVP2,2013-10-06 00:10:00,
2013-10-05 20:15:00,76.3,73.1,30.04,ENE,75,7.0,8.0,90,0.00,,,0.00,WUHU216DAVISVP2,2013-10-06 00:15:00,
2013-10-05 20:20:00,76.4,73.6,30.04,ENE,63,5.0,8.0,91,0.00,,,0.00,WUHU216DAVISVP2,2013-10-06 00:20:00,
2013-10-05 20:25:00,76.3,73.5,30.04,ENE,64,6.0,7.0,91,0.00,,,0.00,WUHU216DAVISVP2,2013-10-06 00:25:00,
2013-10-05 20:30:00,76.3,73.5,30.04,ESE,103,5.0,7.0,91,0.00,,,0.00,WUHU216DAVISVP2,2013-10-06 00:30:00,
2013-10-05 20:35:00,76.4,73.6,30.04,NE,44,7.0,8.0,91,0.00,,,0.00,WUHU216DAVISVP2,2013-10-06 00:35:00,
2013-10-05 20:40:00,76.4,73.6,30.04,East,93,2.0,8.0,91,0.00,,,0.00,WUHU216DAVISVP2,2013-10-06 00:40:00,
2013-10-05 20:45:00,76.4,73.6,30.04,East,79,5.0,8.0,91,0.00,,,0.00,WUHU216DAVISVP2,2013-10-06 00:45:00,
2013-10-05 20:50:00,76.4,73.6,30.05,East,98,4.0,7.0,91,0.00,,,0.00,WUHU216DAVISVP2,2013-10-06 00:50:00,
2013-10-05 20:55:00,76.5,73.7,30.04,East,91,4.0,7.0,91,0.00,,,0.00,WUHU216DAVISVP2,2013-10-06 00:55:00,
2013-10-05 21:00:00,76.4,73.6,30.05,ENE,65,5.0,7.0,91,0.00,,,0.00,WUHU216DAVISVP2,2013-10-06 01:00:00,
2013-10-05 21:05:00,76.5,73.7,30.05,East,82,6.0,7.0,91,0.00,,,0.00,WUHU216DAVISVP2,2013-10-06 01:05:00,
2013-10-05 21:10:00,76.5,73.7,30.05,East,99,6.0,7.0,91,0.00,,,0.00,WUHU216DAVISVP2,2013-10-06 01:10:00,
2013-10-05 21:15:00,76.5,74.0,30.05,ESE,105,4.0,6.0,92,0.00,,,0.00,WUHU216DAVISVP2,2013-10-06 01:15:00,
2013-10-05 21:20:00,76.5,73.7,30.05,East,86,4.0,6.0,91,0.00,,,0.00,WUHU216DAVISVP2,2013-10-06 01:20:00,
2013-10-05 21:25:00,76.6,74.1,30.05,ENE,74,5.0,6.0,92,0.00,,,0.00,WUHU216DAVISVP2,2013-10-06 01:25:00,
2013-10-05 21:30:00,76.6,74.1,30.05,East,98,4.0,6.0,92,0.00,,,0.00,WUHU216DAVISVP2,2013-10-06 01:30:00,
2013-10-05 21:35:00,76.6,74.1,30.05,East,84,6.0,6.0,92,0.00,,,0.00,WUHU216DAVISVP2,2013-10-06 01:35:00,
2013-10-05 21:40:00,76.6,74.1,30.05,ESE,103,6.0,6.0,92,0.00,,,0.00,WUHU216DAVISVP2,2013-10-06 01:40:00,
2013-10-05 21:45:00,76.7,74.2,30.05,ESE,102,5.0,6.0,92,0.00,,,0.00,WUHU216DAVISVP2,2013-10-06 01:45:00,
2013-10-05 21:50:00,76.6,74.1,30.05,ESE,110,4.0,7.0,92,0.00,,,0.00,WUHU216DAVISVP2,2013-10-06 01:50:00,
2013-10-05 21:55:00,76.6,74.1,30.05,ESE,115,6.0,7.0,92,0.00,,,0.00,WUHU216DAVISVP2,2013-10-06 01:55:00,
2013-10-05 22:00:00,76.5,73.7,30.05,SE,128,7.0,8.0,91,0.00,,,0.00,WUHU216DAVISVP2,2013-10-06 02:00:00,
2013-10-05 22:05:00,76.5,73.7,30.05,SE,138,7.0,8.0,91,0.00,,,0.00,WUHU216DAVISVP2,2013-10-06 02:05:00,
2013-10-05 22:10:00,76.5,73.7,30.05,SE,134,7.0,9.0,91,0.00,,,0.00,WUHU216DAVISVP2,2013-10-06 02:10:00,
2013-10-05 22:15:00,76.6,73.4,30.05,SE,126,9.0,9.0,90,0.00,,,0.00,WUHU216DAVISVP2,2013-10-06 02:15:00,
2013-10-05 22:20:00,76.7,73.5,30.05,SE,127,7.0,9.0,90,0.00,,,0.00,WUHU216DAVISVP2,2013-10-06 02:20:00,
2013-10-05 22:25:00,76.7,73.5,30.05,SE,143,6.0,9.0,90,0.00,,,0.00,WUHU216DAVISVP2,2013-10-06 02:25:00,
2013-10-05 22:30:00,76.7,73.5,30.05,SSE,147,7.0,9.0,90,0.00,,,0.00,WUHU216DAVISVP2,2013-10-06 02:30:00,
2013-10-05 22:35:00,76.7,73.5,30.05,SE,138,7.0,8.0,90,0.00,,,0.00,WUHU216DAVISVP2,2013-10-06 02:35:00,
2013-10-05 22:40:00,76.7,73.5,30.05,ESE,123,7.0,8.0,90,0.00,,,0.00,WUHU216DAVISVP2,2013-10-06 02:40:00,
2013-10-05 22:45:00,76.6,73.4,30.05,SE,128,6.0,8.0,90,0.00,,,0.00,WUHU216DAVISVP2,2013-10-06 02:45:00,
2013-10-05 22:50:00,76.6,73.4,30.05,SE,133,6.0,8.0,90,0.00,,,0.00,WUHU216DAVISVP2,2013-10-06 02:50:00,
2013-10-05 22:55:00,76.7,73.5,30.05,ESE,121,6.0,8.0,90,0.00,,,0.00,WUHU216DAVISVP2,2013-10-06 02:55:00,
2013-10-05 23:00:00,76.7,73.5,30.05,ESE,123,5.0,8.0,90,0.00,,,0.00,WUHU216DAVISVP2,2013-10-06 03:00:00,
2013-10-05 23:05:00,76.7,73.9,30.05,SE,136,6.0,7.0,91,0.00,,,0.00,WUHU216DAVISVP2,2013-10-06 03:05:00,
2013-10-05 23:10:00,76.6,73.4,30.05,SE,145,5.0,7.0,90,0.00,,,0.00,WUHU216DAVISVP2,2013-10-06 03:10:00,
2013-10-05 23:15:00,76.6,73.4,30.04,SE,135,6.0,7.0,90,0.00,,,0.00,WUHU216DAVISVP2,2013-10-06 03:15:00,
2013-10-05 23:20:00,76.6,73.4,30.04,SE,132,5.0,7.0,90,0.00,,,0.00,WUHU216DAVISVP2,2013-10-06 03:20:00,
2013-10-05 23:25:00,76.6,73.8,30.05,SE,129,5.0,7.0,91,0.00,,,0.00,WUHU216DAVISVP2,2013-10-06 03:25:00,
2013-10-05 23:30:00,76.7,73.9,30.04,SE,141,4.0,7.0,91,0.00,,,0.00,WUHU216DAVISVP2,2013-10-06 03:30:00,
2013-10-05 23:35:00,76.6,73.8,30.04,SE,141,5.0,7.0,91,0.00,,,0.00,WUHU216DAVISVP2,2013-10-06 03:35:00,
2013-10-05 23:40:00,76.6,73.8,30.04,SE,142,5.0,6.0,91,0.00,,,0.00,WUHU216DAVISVP2,2013-10-06 03:40:00,
2013-10-05 23:45:00,76.6,73.8,30.04,SE,130,4.0,6.0,91,0.00,,,0.00,WUHU216DAVISVP2,2013-10-06 03:45:00,
2013-10-05 23:50:00,76.4,73.2,30.04,SSE,148,5.0,6.0,90,0.00,,,0.00,WUHU216DAVISVP2,2013-10-06 03:50:00,
2013-10-05 23:55:00,76.5,73.3,30.04,SE,141,3.0,6.0,90,0.00,,,0.00,WUHU216DAVISVP2,2013-10-06 03:55:00,